Nearby METAR Reports

 

KMTN - Baltimore/Martin, Maryland, USA
Distance from station: SSE 8mi, 13km
Updated: Thu, 22-Feb-2018 5:45am EST
Overcast
Overcast
 Wind from N
Wind: N 3 mph , 6 km/h
Temperature: 54°F , 12°C
Dew Point: 37°F , 3°C
Humidity: 54%
Barometer: 30.47 inHg , 1031.8 hPa
Clouds: Overcast
Visibility: 10 miles , 16 km
Cloud details: Overcast 3000 ft
2018/02/22 10:45 KMTN 221045Z 36003KT 10SM OVC030 12/03 A3047 RMK FIRST
KDMH - Baltimore/Dwntwn, Maryland, USA
Distance from station: SW 12mi, 19km
Updated: Thu, 22-Feb-2018 4:54am EST

 
Temperature: 55°F , 13°C
Dew Point: 34°F , 1°C
Humidity: 44%
Barometer: 30.45 inHg , 1031.2 hPa
2018/02/22 09:54 KDMH 220954Z AUTO 13/01 A3045 RMK AO1 SLP310 T01330011
 
KBWI - Balto/Wash Intl, Maryland, USA
Distance from station: SSW 20mi, 33km
Updated: Thu, 22-Feb-2018 4:54am EST
Overcast
Overcast
 Wind from NE
Wind: NE 14 mph , 22 km/h
Temperature: 54°F , 12°C
Dew Point: 37°F , 3°C
Humidity: 54%
Barometer: 30.44 inHg , 1030.8 hPa
Clouds: Overcast
Visibility: 10 miles , 16 km
Cloud details: Mostly cloudy 3000 ft
Overcast 4500 ft
2018/02/22 09:54 KBWI 220954Z 05012KT 10SM BKN030 OVC045 12/03 A3044 RMK AO2 SLP308 T01220028
KDMW - Carroll Cnty, Maryland, USA
Distance from station: WNW 30mi, 48km
Updated: Thu, 22-Feb-2018 5:35am EST
Overcast
Overcast
 Wind from NNW
Wind: NNW 5 mph , 7 km/h
Temperature: 48°F , 9°C
Wind Chill: 46°F , 8°C
Dew Point: 37°F , 3°C
Humidity: 66%
Barometer: 30.48 inHg , 1032.2 hPa
Clouds: Overcast
Visibility: 10 miles , 16 km
Cloud details: Overcast 3100 ft
2018/02/22 10:35 KDMW 221035Z AUTO 34004KT 10SM OVC031 09/03 A3048 RMK AO2
 
KNAK - Annapolis/Naval, Maryland, USA
Distance from station: S 30mi, 48km
Updated: Thu, 22-Feb-2018 4:54am EST
Overcast
Overcast
 Wind from N
Wind: N 8 mph , 13 km/h
Temperature: 55°F , 13°C
Dew Point: 43°F , 6°C
Humidity: 63%
Barometer: 30.43 inHg , 1030.5 hPa
Clouds: Overcast
Visibility: 10 miles , 16 km
Cloud details: Overcast 2600 ft
2018/02/22 09:54 KNAK 220954Z AUTO 01007KT 10SM OVC026 13/06 A3043 RMK AO2 SLP306 T01330056
KW29 - Stevensville, Maryland, USA
Distance from station: SSE 31mi, 50km
Updated: Thu, 22-Feb-2018 5:35am EST
Overcast
Overcast
 Wind from N
Wind: N 6 mph , 9 km/h
Temperature: 50°F , 10°C
Wind Chill: 48°F , 9°C
Dew Point: 43°F , 6°C
Humidity: 76%
Barometer: 30.44 inHg , 1030.8 hPa
Clouds: Overcast
Visibility: 10 miles , 16 km
Cloud details: Overcast 2600 ft
2018/02/22 10:35 KW29 221035Z AUTO 35005KT 10SM OVC026 10/06 A3044 RMK AO2
 
KCGS - College Park, Maryland, USA
Distance from station: SW 38mi, 61km
Updated: Thu, 22-Feb-2018 5:38am EST
Overcast
Overcast
 Wind from NNE
Wind: NNE 6 mph , 9 km/h
Temperature: 55°F , 13°C
Dew Point: 39°F , 4°C
Humidity: 55%
Barometer: 30.44 inHg , 1030.8 hPa
Clouds: Overcast
Visibility: 10 miles , 16 km
Cloud details: Overcast 2300 ft
2018/02/22 10:38 KCGS 221038Z AUTO 03005KT 10SM OVC023 13/04 A3044 RMK AO1 T01300035
KGAI - Gaithersburg, Maryland, USA
Distance from station: WSW 40mi, 65km
Updated: Thu, 22-Feb-2018 4:56am EST
Overcast
Overcast
 Wind from NE
Wind: NE 7 mph , 11 km/h
Temperature: 54°F , 12°C
Dew Point: 45°F , 7°C
Humidity: 72%
Barometer: 30.44 inHg , 1030.8 hPa
Clouds: Overcast
Visibility: 10 miles , 16 km
Cloud details: Overcast 2700 ft
2018/02/22 09:56 KGAI 220956Z AUTO 04006KT 10SM OVC027 12/07 A3044 RMK AO2 SLP336 T01170067
 
KTHV - York, Pennsylvania, USA
Distance from station: NNW 40mi, 65km
Updated: Thu, 22-Feb-2018 4:53am EST
Overcast
Overcast
 Wind from NE
Wind: NE 9 mph , 15 km/h
Temperature: 46°F , 8°C
Wind Chill: 41°F , 5°C
Dew Point: 32°F , 0°C
Humidity: 57%
Barometer: 30.48 inHg , 1032.2 hPa
Clouds: Overcast
Visibility: 10 miles , 16 km
Cloud details: Overcast 3600 ft
2018/02/22 09:53 KTHV 220953Z AUTO 04008KT 10SM OVC036 08/00 A3048 RMK AO2 SLP322 T00830000
KFDK - Frederick, Maryland, USA
Distance from station: W 47mi, 75km
Updated: Thu, 22-Feb-2018 5:35am EST
Overcast
Overcast
 Wind from NNE
Wind: NNE 10 mph , 17 km/h
Temperature: 48°F , 9°C
Wind Chill: 44°F , 7°C
Dew Point: 41°F , 5°C
Humidity: 76%
Barometer: 30.50 inHg , 1032.8 hPa
Clouds: Overcast
Visibility: 10 miles , 16 km
Cloud details: Overcast 3100 ft
2018/02/22 10:35 KFDK 221035Z AUTO 02009KT 10SM OVC031 09/05 A3050 RMK AO2
 
KESN - Easton/Newnam, Maryland, USA
Distance from station: SSE 48mi, 78km
Updated: Thu, 22-Feb-2018 5:07am EST
Overcast
Overcast
 Wind from ENE
Wind: ENE 8 mph , 13 km/h
Temperature: 61°F , 16°C
Dew Point: 50°F , 10°C
Humidity: 68%
Barometer: 30.46 inHg , 1031.5 hPa
Clouds: Overcast
Visibility: 10 miles , 16 km
Cloud details: Overcast 2000 ft
2018/02/22 10:07 KESN 221007Z AUTO 07007KT 10SM OVC020 16/10 A3046 RMK AO2 T01560101
KDCA - Washington/Natl, Washington D.c., USA
Distance from station: SW 49mi, 79km
Updated: Thu, 22-Feb-2018 4:52am EST
Overcast
Overcast
 Wind from NE
Wind: NE 14 mph , 22 km/h
Temperature: 57°F , 14°C
Dew Point: 43°F , 6°C
Humidity: 59%
Barometer: 30.43 inHg , 1030.5 hPa
Clouds: Overcast
Visibility: 10 miles , 16 km
Cloud details: Overcast 2400 ft
2018/02/22 09:52 KDCA 220952Z 04012KT 10SM OVC024 14/06 A3043 RMK AO2 SLP304 T01440056
 
KLNS - Lancaster, Pennsylvania, USA
Distance from station: N 49mi, 79km
Updated: Thu, 22-Feb-2018 4:53am EST
Overcast
Overcast
 Wind from ENE
Wind: ENE 15 mph , 24 km/h
Temperature: 46°F , 8°C
Wind Chill: 40°F , 4°C
Dew Point: 34°F , 1°C
Humidity: 62%
Barometer: 30.49 inHg , 1032.5 hPa
Clouds: Overcast
Visibility: 10 miles , 16 km
Cloud details: Overcast 3800 ft
2018/02/22 09:53 KLNS 220953Z AUTO 06013KT 10SM OVC038 08/01 A3049 RMK AO2 SLP323 T00780011
KILG - Wilmington, Delaware, USA
Distance from station: ENE 50mi, 81km
Updated: Thu, 22-Feb-2018 4:51am EST
Overcast
Overcast
 Wind from NE
Wind: NE 14 mph , 22 km/h
Temperature: 54°F , 12°C
Dew Point: 32°F , 0°C
Humidity: 44%
Barometer: 30.46 inHg , 1031.5 hPa
Clouds: Overcast
Visibility: 10 miles , 16 km
Cloud details: Overcast 3900 ft
2018/02/22 09:51 KILG 220951Z AUTO 04012KT 10SM OVC039 12/00 A3046 RMK AO2 SLP315 T01220000